SHASTA DAM (USBR) (SHA)

Elevation: 1067' · SACRAMENTO R basin · Operator: US Bureau of Reclamation

Provisional data, subject to change.
Query executed Saturday at 22:41:55   clock

Select a sensor type for a plot of data.
Note: Reservoir Flows are daily averages.

Earlier

Date RES ELE    STORAGE    RES CHG    TOC STO    ABV TOC    OUTFLOW    INFLOW    EVAP    FNF    RIV REL    PPT INC    RAIN    SPILL    DIS PWR   
 FEET   AF   AF   AF   AF   CFS   CFS   CFS   CFS   CFS   INCHES   INCHES   CFS   CFS  
10/23/2014 894.76 1105951 -3128 4061936 -2955985 4896 3326 7 3481 0 0.47 1.12 0 4896
10/24/2014 895.08 1109662 3711 4040624 -2930962 2343 4217 3 3403 0 0.59 1.71 0 2343
10/25/2014 895.82 1118289 8627 4019313 -2901024 2453 6847 45 1665 0 0.47 2.18 0 2453
10/26/2014 895.60 1115724 -2565 3998002 -2882278 4158 2872 7 8766 0 2.17 4.35 0 4158
10/27/2014 895.38 1113159 -2565 3976690 -2863531 4106 2851 38 2529 0 0.00 4.35 0 4106
10/28/2014 895.09 1109778 -3381 3955378 -2845600 4414 2747 38 2992 0 0.00 4.35 0 4414
10/29/2014 895.02 1108962 -816 3934067 -2825105 2666 2269 14 2629 0 0.00 4.35 0 2666
10/30/2014 895.12 1110128 1166 3912756 -2802628 2337 2966 41 2903 0 0.00 4.35 0 2337
10/31/2014 895.01 1108846 -1282 3891444 -2782598 4519 3876 3 3568 0 0.72 5.07 0 4519
11/01/2014 895.14 1110361 1515 3870133 -2759772 2718 3499 17 3236 0 0.21 5.28 0 2718
11/02/2014 895.22 1111294 933 3848821 -2737527 2423 2910 17 3026 0 0.00 5.28 0 2423
11/03/2014 895.03 1109079 -2215 3827510 -2718431 4236 3139 20 2704 0 0.00 5.28 0 4236
11/04/2014 894.73 1105604 -3475 3806198 -2700594 4576 2858 34 2857 0 0.00 5.28 0 4576
11/05/2014 894.48 1102711 -2893 3784887 -2682176 4669 3237 27 3037 0 0.00 5.28 0 4669
11/06/2014 894.18 1099239 -3472 3763575 -2664336 4864 3148 34 2918 0 0.00 5.28 0 4864
11/07/2014 893.79 1094744 -4495 3742264 -2647520 4950 2721 37 2893 0 0.00 5.28 0 4950
11/08/2014 893.44 1090723 -4021 3720952 -2630229 4736 2749 40 2770 0 0.00 5.28 0 4736
11/09/2014 893.06 1086357 -4366 3699641 -2613284 4876 2709 34 2866 0 0.00 5.28 0 4876
11/10/2014 892.70 1082247 -4110 3678330 -2596082 4855 2813 30 2676 0 0.00 5.28 0 4855
11/11/2014 892.41 1078941 -3306 3657018 -2578077 4221 2611 57 2720 r 0 0.00 5.28 0 4221
11/12/2014 892.03 1074608 -4333 3635706 -2561098 4796 2634 23 2720 r 0 0.00 5.28 0 4796
11/13/2014 891.83 1072342 -2266 3614395 -2542053 4469 3337 10 2932 0 0.45 5.73 0 4469
11/14/2014 891.39 1067361 -4981 3593084 -2525722 4828 2327 10 2599 0 0.07 5.80 0 4828
11/15/2014 891.12 1064305 -3056 3571772 -2507467 4621 3083 3 2465 0 0.03 5.83 0 4621
11/16/2014 890.68 1059352 -4953 3550460 -- 4289 1815 23 3126 0 0.00 5.83 0 4289
11/17/2014 890.22 1054184 -5168 3529149 -2474965 4151 1589 43 2282 0 0.00 5.83 0 4151
11/18/2014 890.07 1052499 -1685 3507838 -2455338 4209 3389 30 2250 0 0.00 5.83 0 4209
11/19/2014 890.06 1052387 -112 3486526 -2434139 3526 3500 30 3296 0 0.00 5.83 0 3526
11/20/2014 890.23 1054297 1910 3465215 -2410918 3499 4478 16 3340 0 0.51 6.34 0 3499
11/21/2014 890.08 1052612 -1685 -- -- 4345 3561 66 3870 0 0.20 6.54 0 4345
11/22/2014 -- -- -- -- -- -- -- -- -- -- -- -- -- --

Later | Latest

Warning! This data is preliminary and subject to revision.

Show SHA Map | Plot SHA Data | 1 Month SHA Data | Real-Time SHA Data | SHA Info